Vicki K — WDI5136 — position and weather

sailwx.info

Track history (hours):
 
Tides and Currents Weather Stations Pressure Air Temp Water Temp Dewpoint Dewpoint Depression Visibility Wind Speed Wind Dir Waves Ship Positions

Vicki K

Owner: Charca Fish VIII LLC, mill valley, CA. More information available from US FCC via Universal Licensing System and Coast Guard Vessel Documentation Center.

Last reported at 2017-Nov-12 04:37 UTC. Time now 2017-Dec-18 14:55 UTC.
Position N 32°43' W 117°13'.
Warning: this ship's position is 36 days out of date.

Length 32 m; draft 4.5 m.

Type: Fishing. MMSI: 367705530.

Date/timePositionNaut miles runAvg speedWind from/ knotsBaromVisibWave heightAir tempDewpointWater temp
2017-Nov-12 04:37N 32°43' W 117°13'1 5.5
2017-Nov-12 04:27N 32°42' W 117°14'1 0.1
2017-Nov-11 20:36N 32°42' W 117°14'1 5.5
2017-Nov-11 20:27N 32°41' W 117°14'3 5.2
2017-Nov-11 19:49N 32°38' W 117°16'2 6.8
2017-Nov-11 19:30N 32°39' W 117°18'3 6.6
2017-Nov-11 19:00N 32°40' W 117°21'3 6.8
2017-Nov-11 18:31N 32°42' W 117°25'4 7.0
2017-Nov-11 18:00N 32°44' W 117°28'3 6.9
2017-Nov-11 17:31N 32°45' W 117°32'3 6.6
2017-Nov-11 17:01N 32°47' W 117°35'3 6.7
2017-Nov-11 16:30N 32°48' W 117°39'3 5.2
2017-Nov-11 15:59N 32°49' W 117°42'3 7.0
2017-Nov-11 15:30N 32°46' W 117°40'4 6.8
2017-Nov-11 14:58N 32°43' W 117°38'4 6.8
2017-Nov-11 14:24N 32°40' W 117°35'3 6.7
2017-Nov-11 14:00N 32°38' W 117°33'35 1.0
2017-Nov-10 03:23N 32°26' W 118°12'30 5.2
2017-Nov-09 21:36N 32°39' W 118°45'1 5.4
2017-Nov-09 21:26N 32°39' W 118°46'3 5.9
2017-Nov-09 20:54N 32°40' W 118°49'2 5.9
2017-Nov-09 20:29N 32°41' W 118°52'3 5.9
2017-Nov-09 19:58N 32°43' W 118°55'3 6.0
2017-Nov-09 19:30N 32°44' W 118°58'5 6.2
2017-Nov-09 18:37N 32°46' W 119°04'2 5.6
2017-Nov-09 18:20N 32°47' W 119°06'2 5.8
2017-Nov-09 17:57N 32°48' W 119°08'12 5.3
2017-Nov-09 15:39N 32°53' W 119°22'1 5.3
2017-Nov-09 15:26N 32°53' W 119°23'3 5.2
2017-Nov-09 14:50N 32°55' W 119°26'2 5.5
2017-Nov-09 14:24N 32°55' W 119°29'3 5.4
2017-Nov-09 13:50N 32°57' W 119°32'2 5.6
2017-Nov-09 13:31N 32°57' W 119°34'3 5.7
2017-Nov-09 13:00N 32°58' W 119°37'3 5.7
2017-Nov-09 12:29N 32°59' W 119°41'3 5.4
2017-Nov-09 11:56N 33°00' W 119°44'10 5.5
2017-Nov-09 10:12N 33°04' W 119°55'2 5.5
2017-Nov-09 09:55N 33°04' W 119°56'5 5.9
2017-Nov-09 09:07N 33°07' W 120°01'1 5.8
2017-Nov-09 09:00N 33°07' W 120°02'10 5.3
2017-Nov-09 07:09N 33°11' W 120°12'1 5.1
2017-Nov-09 07:00N 33°12' W 120°13'3 5.2
2017-Nov-09 06:30N 33°13' W 120°16'3 5.3
2017-Nov-09 05:56N 33°14' W 120°19'3 6.0
2017-Nov-09 05:30N 33°15' W 120°22'3 5.7
2017-Nov-09 05:00N 33°17' W 120°24'3 5.8
2017-Nov-09 04:30N 33°20' W 120°27'3 5.9
2017-Nov-09 04:00N 33°22' W 120°29'3 5.9
2017-Nov-09 03:30N 33°24' W 120°31'3 6.0
2017-Nov-09 03:00N 33°26' W 120°34'3 6.2
2017-Nov-09 02:31N 33°29' W 120°36'3 6.0
2017-Nov-09 02:01N 33°31' W 120°38'3 6.0
2017-Nov-09 01:30N 33°33' W 120°40'3 5.8
2017-Nov-09 01:00N 33°36' W 120°43'3 5.9
2017-Nov-09 00:30N 33°38' W 120°45'3 6.0
2017-Nov-09 00:00N 33°40' W 120°47'3 6.0
2017-Nov-08 23:30N 33°43' W 120°49'3 6.2
2017-Nov-08 23:01N 33°45' W 120°51'3 5.9
2017-Nov-08 22:30N 33°48' W 120°53'3 5.8
2017-Nov-08 22:00N 33°50' W 120°56'3 5.5
2017-Nov-08 21:30N 33°52' W 120°58'3 5.7
2017-Nov-08 21:00N 33°55' W 120°60'3 5.5
2017-Nov-08 20:31N 33°57' W 121°02'3 5.5
2017-Nov-08 20:00N 33°59' W 121°04'3 5.7
2017-Nov-08 19:31N 34°01' W 121°06'3 5.9
2017-Nov-08 19:00N 34°03' W 121°08'3 5.8
2017-Nov-08 18:30N 34°06' W 121°10'3 5.1
2017-Nov-08 18:00N 34°08' W 121°12'3 5.1
2017-Nov-08 17:30N 34°10' W 121°14'3 5.0
2017-Nov-08 17:00N 34°12' W 121°16'3 5.0
2017-Nov-08 16:30N 34°14' W 121°18'3 5.1
2017-Nov-08 15:58N 34°16' W 121°20'3 5.2
2017-Nov-08 15:28N 34°18' W 121°22'3 5.3
2017-Nov-08 14:57N 34°20' W 121°24'3 5.5
2017-Nov-08 14:29N 34°22' W 121°26'3 5.4
2017-Nov-08 13:58N 34°25' W 121°27'4 5.3
2017-Nov-08 13:16N 34°27' W 121°30'1 5.1
2017-Nov-08 13:00N 34°28' W 121°31'3 5.4
2017-Nov-08 12:30N 34°31' W 121°33'3 5.4
2017-Nov-08 11:55N 34°33' W 121°36'2 5.5
2017-Nov-08 11:30N 34°35' W 121°37'3 5.7
2017-Nov-08 11:00N 34°37' W 121°39'3 5.7
2017-Nov-08 10:30N 34°39' W 121°42'3 5.5
2017-Nov-08 10:00N 34°41' W 121°44'3 5.3
2017-Nov-08 09:21N 34°44' W 121°47'2 5.2
2017-Nov-08 09:00N 34°45' W 121°48'3 5.3
2017-Nov-08 08:30N 34°47' W 121°50'3 5.2
2017-Nov-08 08:00N 34°50' W 121°52'3 5.4
2017-Nov-08 07:29N 34°52' W 121°54'3 5.4
2017-Nov-08 07:00N 34°54' W 121°56'3 5.5
2017-Nov-08 06:30N 34°56' W 121°58'3 5.7
2017-Nov-08 06:00N 34°59' W 121°59'3 5.5
2017-Nov-08 05:30N 35°01' W 122°01'3 6.1
2017-Nov-08 05:00N 35°04' W 122°02'3 6.7
2017-Nov-08 04:30N 35°07' W 122°04'3 6.7
2017-Nov-08 04:00N 35°10' W 122°06'3 6.6
2017-Nov-08 03:30N 35°13' W 122°07'3 6.6
2017-Nov-08 03:00N 35°16' W 122°09'3 6.6
2017-Nov-08 02:30N 35°19' W 122°11'3 6.5
2017-Nov-08 02:00N 35°22' W 122°13'3 6.4
2017-Nov-08 01:30N 35°25' W 122°15'3 6.7
2017-Nov-08 01:00N 35°27' W 122°17'3 6.9
2017-Nov-08 00:30N 35°30' W 122°20'3 7.0
2017-Nov-08 00:00N 35°33' W 122°22'3 6.9
2017-Nov-07 23:30N 35°36' W 122°24'3 6.8
2017-Nov-07 23:00N 35°39' W 122°26'4 6.6
2017-Nov-07 22:20N 35°43' W 122°29'2 7.1
2017-Nov-07 22:00N 35°45' W 122°30'4 7.6
2017-Nov-07 21:30N 35°48' W 122°33'4 7.3
2017-Nov-07 21:00N 35°51' W 122°35'3 6.6
2017-Nov-07 20:30N 35°54' W 122°37'3 6.5
2017-Nov-07 20:00N 35°57' W 122°39'3 6.6
2017-Nov-07 19:30N 35°60' W 122°41'4 7.0
2017-Nov-07 18:58N 36°03' W 122°43'3 7.1
2017-Nov-07 18:30N 36°06' W 122°46'3 6.8
2017-Nov-07 18:00N 36°09' W 122°48'4 7.3
2017-Nov-07 17:30N 36°12' W 122°51'4 7.5
2017-Nov-07 17:00N 36°14' W 122°54'4 7.6
2017-Nov-07 16:27N 36°17' W 122°57'100 6.9
2017-Nov-07 02:05N 37°37' W 124°13'12 7.3
2017-Nov-07 00:26N 37°47' W 124°21'3 7.4
2017-Nov-06 23:59N 37°50' W 124°23'24 7.2
2017-Nov-06 20:41N 38°10' W 124°39'  
2017-Nov-03 22:02N 45°41' W 125°12'0 6.7
2017-Nov-03 21:59N 45°41' W 125°12'3 6.6
2017-Nov-03 21:30N 45°44' W 125°10'3 6.8
2017-Nov-03 21:00N 45°47' W 125°08'3 6.7
2017-Nov-03 20:30N 45°50' W 125°06'3 6.8
2017-Nov-03 20:00N 45°54' W 125°05'3 6.8
2017-Nov-03 19:31N 45°57' W 125°03'5 6.6
2017-Nov-03 18:47N 46°01' W 125°01'3 6.8
2017-Nov-03 18:20N 46°04' W 124°60'2 6.6
2017-Nov-03 18:01N 46°06' W 124°59'3 6.4
2017-Nov-03 17:30N 46°10' W 124°58'3 6.4
2017-Nov-03 17:00N 46°13' W 124°57'3 6.4
2017-Nov-03 16:30N 46°16' W 124°56'3 6.6
2017-Nov-03 16:01N 46°19' W 124°55'3 6.5
2017-Nov-03 15:31N 46°22' W 124°54'3 6.4
2017-Nov-03 15:00N 46°25' W 124°52'3 6.3
2017-Nov-03 14:30N 46°28' W 124°49'3 6.2
2017-Nov-03 14:01N 46°30' W 124°47'3 6.1
2017-Nov-03 13:30N 46°33' W 124°44'3 6.1
2017-Nov-03 13:00N 46°35' W 124°42'3 6.1
2017-Nov-03 12:30N 46°38' W 124°39'3 5.9
2017-Nov-03 12:01N 46°40' W 124°37'3 5.8
2017-Nov-03 11:31N 46°43' W 124°35'3 5.8
2017-Nov-03 11:01N 46°45' W 124°32'3 5.7
2017-Nov-03 10:31N 46°47' W 124°30'3 5.7
2017-Nov-03 10:00N 46°49' W 124°27'3 5.3
2017-Nov-03 09:30N 46°51' W 124°24'3 5.3
2017-Nov-03 09:00N 46°52' W 124°20'3 5.8
2017-Nov-03 08:31N 46°53' W 124°17'3 5.8
2017-Nov-03 08:00N 46°54' W 124°13'2 4.9
2017-Nov-03 07:30N 46°55' W 124°09'2 0.2
2017-Nov-02 18:03N 46°54' W 124°06'0 0.0
2017-Nov-02 17:57N 46°54' W 124°06'0 0.0
2017-Nov-02 16:18N 46°54' W 124°06'0 0.0
2017-Nov-02 15:48N 46°54' W 124°06'0 0.0
2017-Nov-02 12:12N 46°54' W 124°06'0 0.2
2017-Nov-02 12:00N 46°54' W 124°06'0 0.1
2017-Nov-02 11:12N 46°54' W 124°06'0 0.1
2017-Nov-02 10:36N 46°54' W 124°06'0 0.2
2017-Nov-02 10:24N 46°54' W 124°06'  
Track history (hours):
 
Tides and Currents Weather Stations Pressure Air Temp Water Temp Dewpoint Dewpoint Depression Visibility Wind Speed Wind Dir Waves Ship Positions

Vicki K

Owner: Charca Fish VIII LLC, mill valley, CA. More information available from US FCC via Universal Licensing System and Coast Guard Vessel Documentation Center.

Last reported at 2017-Nov-12 04:37 UTC. Time now 2017-Dec-18 14:55 UTC.
Position N 32°43' W 117°13'.
Warning: this ship's position is 36 days out of date.

Length 32 m; draft 4.5 m.

Type: Fishing. MMSI: 367705530.

Date/timePositionNaut miles runAvg speedWind from/ knotsBaromVisibWave heightAir tempDewpointWater temp
2017-Nov-12 04:37N 32°43' W 117°13'1 5.5
2017-Nov-12 04:27N 32°42' W 117°14'1 0.1
2017-Nov-11 20:36N 32°42' W 117°14'1 5.5
2017-Nov-11 20:27N 32°41' W 117°14'3 5.2
2017-Nov-11 19:49N 32°38' W 117°16'2 6.8
2017-Nov-11 19:30N 32°39' W 117°18'3 6.6
2017-Nov-11 19:00N 32°40' W 117°21'3 6.8
2017-Nov-11 18:31N 32°42' W 117°25'4 7.0
2017-Nov-11 18:00N 32°44' W 117°28'3 6.9
2017-Nov-11 17:31N 32°45' W 117°32'3 6.6
2017-Nov-11 17:01N 32°47' W 117°35'3 6.7
2017-Nov-11 16:30N 32°48' W 117°39'3 5.2
2017-Nov-11 15:59N 32°49' W 117°42'3 7.0
2017-Nov-11 15:30N 32°46' W 117°40'4 6.8
2017-Nov-11 14:58N 32°43' W 117°38'4 6.8
2017-Nov-11 14:24N 32°40' W 117°35'3 6.7
2017-Nov-11 14:00N 32°38' W 117°33'35 1.0
2017-Nov-10 03:23N 32°26' W 118°12'30 5.2
2017-Nov-09 21:36N 32°39' W 118°45'1 5.4
2017-Nov-09 21:26N 32°39' W 118°46'3 5.9
2017-Nov-09 20:54N 32°40' W 118°49'2 5.9
2017-Nov-09 20:29N 32°41' W 118°52'3 5.9
2017-Nov-09 19:58N 32°43' W 118°55'3 6.0
2017-Nov-09 19:30N 32°44' W 118°58'5 6.2
2017-Nov-09 18:37N 32°46' W 119°04'2 5.6
2017-Nov-09 18:20N 32°47' W 119°06'2 5.8
2017-Nov-09 17:57N 32°48' W 119°08'12 5.3
2017-Nov-09 15:39N 32°53' W 119°22'1 5.3
2017-Nov-09 15:26N 32°53' W 119°23'3 5.2
2017-Nov-09 14:50N 32°55' W 119°26'2 5.5
2017-Nov-09 14:24N 32°55' W 119°29'3 5.4
2017-Nov-09 13:50N 32°57' W 119°32'2 5.6
2017-Nov-09 13:31N 32°57' W 119°34'3 5.7
2017-Nov-09 13:00N 32°58' W 119°37'3 5.7
2017-Nov-09 12:29N 32°59' W 119°41'3 5.4
2017-Nov-09 11:56N 33°00' W 119°44'10 5.5
2017-Nov-09 10:12N 33°04' W 119°55'2 5.5
2017-Nov-09 09:55N 33°04' W 119°56'5 5.9
2017-Nov-09 09:07N 33°07' W 120°01'1 5.8
2017-Nov-09 09:00N 33°07' W 120°02'10 5.3
2017-Nov-09 07:09N 33°11' W 120°12'1 5.1
2017-Nov-09 07:00N 33°12' W 120°13'3 5.2
2017-Nov-09 06:30N 33°13' W 120°16'3 5.3
2017-Nov-09 05:56N 33°14' W 120°19'3 6.0
2017-Nov-09 05:30N 33°15' W 120°22'3 5.7
2017-Nov-09 05:00N 33°17' W 120°24'3 5.8
2017-Nov-09 04:30N 33°20' W 120°27'3 5.9
2017-Nov-09 04:00N 33°22' W 120°29'3 5.9
2017-Nov-09 03:30N 33°24' W 120°31'3 6.0
2017-Nov-09 03:00N 33°26' W 120°34'3 6.2
2017-Nov-09 02:31N 33°29' W 120°36'3 6.0
2017-Nov-09 02:01N 33°31' W 120°38'3 6.0
2017-Nov-09 01:30N 33°33' W 120°40'3 5.8
2017-Nov-09 01:00N 33°36' W 120°43'3 5.9
2017-Nov-09 00:30N 33°38' W 120°45'3 6.0
2017-Nov-09 00:00N 33°40' W 120°47'3 6.0
2017-Nov-08 23:30N 33°43' W 120°49'3 6.2
2017-Nov-08 23:01N 33°45' W 120°51'3 5.9
2017-Nov-08 22:30N 33°48' W 120°53'3 5.8
2017-Nov-08 22:00N 33°50' W 120°56'3 5.5
2017-Nov-08 21:30N 33°52' W 120°58'3 5.7
2017-Nov-08 21:00N 33°55' W 120°60'3 5.5
2017-Nov-08 20:31N 33°57' W 121°02'3 5.5
2017-Nov-08 20:00N 33°59' W 121°04'3 5.7
2017-Nov-08 19:31N 34°01' W 121°06'3 5.9
2017-Nov-08 19:00N 34°03' W 121°08'3 5.8
2017-Nov-08 18:30N 34°06' W 121°10'3 5.1
2017-Nov-08 18:00N 34°08' W 121°12'3 5.1
2017-Nov-08 17:30N 34°10' W 121°14'3 5.0
2017-Nov-08 17:00N 34°12' W 121°16'3 5.0
2017-Nov-08 16:30N 34°14' W 121°18'3 5.1
2017-Nov-08 15:58N 34°16' W 121°20'3 5.2
2017-Nov-08 15:28N 34°18' W 121°22'3 5.3
2017-Nov-08 14:57N 34°20' W 121°24'3 5.5
2017-Nov-08 14:29N 34°22' W 121°26'3 5.4
2017-Nov-08 13:58N 34°25' W 121°27'4 5.3
2017-Nov-08 13:16N 34°27' W 121°30'1 5.1
2017-Nov-08 13:00N 34°28' W 121°31'3 5.4
2017-Nov-08 12:30N 34°31' W 121°33'3 5.4
2017-Nov-08 11:55N 34°33' W 121°36'2 5.5
2017-Nov-08 11:30N 34°35' W 121°37'3 5.7
2017-Nov-08 11:00N 34°37' W 121°39'3 5.7
2017-Nov-08 10:30N 34°39' W 121°42'3 5.5
2017-Nov-08 10:00N 34°41' W 121°44'3 5.3
2017-Nov-08 09:21N 34°44' W 121°47'2 5.2
2017-Nov-08 09:00N 34°45' W 121°48'3 5.3
2017-Nov-08 08:30N 34°47' W 121°50'3 5.2
2017-Nov-08 08:00N 34°50' W 121°52'3 5.4
2017-Nov-08 07:29N 34°52' W 121°54'3 5.4
2017-Nov-08 07:00N 34°54' W 121°56'3 5.5
2017-Nov-08 06:30N 34°56' W 121°58'3 5.7
2017-Nov-08 06:00N 34°59' W 121°59'3 5.5
2017-Nov-08 05:30N 35°01' W 122°01'3 6.1
2017-Nov-08 05:00N 35°04' W 122°02'3 6.7
2017-Nov-08 04:30N 35°07' W 122°04'3 6.7
2017-Nov-08 04:00N 35°10' W 122°06'3 6.6
2017-Nov-08 03:30N 35°13' W 122°07'3 6.6
2017-Nov-08 03:00N 35°16' W 122°09'3 6.6
2017-Nov-08 02:30N 35°19' W 122°11'3 6.5
2017-Nov-08 02:00N 35°22' W 122°13'3 6.4
2017-Nov-08 01:30N 35°25' W 122°15'3 6.7
2017-Nov-08 01:00N 35°27' W 122°17'3 6.9
2017-Nov-08 00:30N 35°30' W 122°20'3 7.0
2017-Nov-08 00:00N 35°33' W 122°22'3 6.9
2017-Nov-07 23:30N 35°36' W 122°24'3 6.8
2017-Nov-07 23:00N 35°39' W 122°26'4 6.6
2017-Nov-07 22:20N 35°43' W 122°29'2 7.1
2017-Nov-07 22:00N 35°45' W 122°30'4 7.6
2017-Nov-07 21:30N 35°48' W 122°33'4 7.3
2017-Nov-07 21:00N 35°51' W 122°35'3 6.6
2017-Nov-07 20:30N 35°54' W 122°37'3 6.5
2017-Nov-07 20:00N 35°57' W 122°39'3 6.6
2017-Nov-07 19:30N 35°60' W 122°41'4 7.0
2017-Nov-07 18:58N 36°03' W 122°43'3 7.1
2017-Nov-07 18:30N 36°06' W 122°46'3 6.8
2017-Nov-07 18:00N 36°09' W 122°48'4 7.3
2017-Nov-07 17:30N 36°12' W 122°51'4 7.5
2017-Nov-07 17:00N 36°14' W 122°54'4 7.6
2017-Nov-07 16:27N 36°17' W 122°57'100 6.9
2017-Nov-07 02:05N 37°37' W 124°13'12 7.3
2017-Nov-07 00:26N 37°47' W 124°21'3 7.4
2017-Nov-06 23:59N 37°50' W 124°23'24 7.2
2017-Nov-06 20:41N 38°10' W 124°39'  
2017-Nov-03 22:02N 45°41' W 125°12'0 6.7
2017-Nov-03 21:59N 45°41' W 125°12'3 6.6
2017-Nov-03 21:30N 45°44' W 125°10'3 6.8
2017-Nov-03 21:00N 45°47' W 125°08'3 6.7
2017-Nov-03 20:30N 45°50' W 125°06'3 6.8
2017-Nov-03 20:00N 45°54' W 125°05'3 6.8
2017-Nov-03 19:31N 45°57' W 125°03'5 6.6
2017-Nov-03 18:47N 46°01' W 125°01'3 6.8
2017-Nov-03 18:20N 46°04' W 124°60'2 6.6
2017-Nov-03 18:01N 46°06' W 124°59'3 6.4
2017-Nov-03 17:30N 46°10' W 124°58'3 6.4
2017-Nov-03 17:00N 46°13' W 124°57'3 6.4
2017-Nov-03 16:30N 46°16' W 124°56'3 6.6
2017-Nov-03 16:01N 46°19' W 124°55'3 6.5
2017-Nov-03 15:31N 46°22' W 124°54'3 6.4
2017-Nov-03 15:00N 46°25' W 124°52'3 6.3
2017-Nov-03 14:30N 46°28' W 124°49'3 6.2
2017-Nov-03 14:01N 46°30' W 124°47'3 6.1
2017-Nov-03 13:30N 46°33' W 124°44'3 6.1
2017-Nov-03 13:00N 46°35' W 124°42'3 6.1
2017-Nov-03 12:30N 46°38' W 124°39'3 5.9
2017-Nov-03 12:01N 46°40' W 124°37'3 5.8
2017-Nov-03 11:31N 46°43' W 124°35'3 5.8
2017-Nov-03 11:01N 46°45' W 124°32'3 5.7
2017-Nov-03 10:31N 46°47' W 124°30'3 5.7
2017-Nov-03 10:00N 46°49' W 124°27'3 5.3
2017-Nov-03 09:30N 46°51' W 124°24'3 5.3
2017-Nov-03 09:00N 46°52' W 124°20'3 5.8
2017-Nov-03 08:31N 46°53' W 124°17'3 5.8
2017-Nov-03 08:00N 46°54' W 124°13'2 4.9
2017-Nov-03 07:30N 46°55' W 124°09'2 0.2
2017-Nov-02 18:03N 46°54' W 124°06'0 0.0
2017-Nov-02 17:57N 46°54' W 124°06'0 0.0
2017-Nov-02 16:18N 46°54' W 124°06'0 0.0
2017-Nov-02 15:48N 46°54' W 124°06'0 0.0
2017-Nov-02 12:12N 46°54' W 124°06'0 0.2
2017-Nov-02 12:00N 46°54' W 124°06'0 0.1
2017-Nov-02 11:12N 46°54' W 124°06'0 0.1
2017-Nov-02 10:36N 46°54' W 124°06'0 0.2
2017-Nov-02 10:24N 46°54' W 124°06'  

Dump ship's entire track history